Time;durP1;ratioP1;P1;durP2;ratioP2;P2;SDS_P1;SDS_P2;PMS_P1;PMS_P2;Temp;Humidity;BMP_temperature;BMP_pressure;BME280_temperature;BME280_humidity;BME280_pressure;Samples;Min_cycle;Max_cycle;Signal;HPM_P1;HPM_P2
2022/07/28 00:01:20;;;;;;;1.13;0.70;;;;;;;17.60;46.93;98994.00;5071517;28;41309;-78
2022/07/28 00:03:47;;;;;;;0.97;0.80;;;;;;;17.67;46.79;99002.41;5054616;28;43763;-78
2022/07/28 00:06:16;;;;;;;3.27;0.67;;;;;;;17.60;46.88;98995.84;5088663;28;43615;-80
2022/07/28 00:08:44;;;;;;;1.47;0.80;;;;;;;17.55;46.90;98993.59;5075160;28;40835;-79
2022/07/28 00:11:12;;;;;;;0.60;0.50;;;;;;;17.55;46.90;99001.63;5093247;28;40730;-80
2022/07/28 00:13:40;;;;;;;1.90;0.77;;;;;;;17.52;46.80;98998.38;5077541;28;41802;-78
2022/07/28 00:16:07;;;;;;;0.90;0.60;;;;;;;17.47;47.03;99000.59;5076765;28;42689;-78
2022/07/28 00:18:35;;;;;;;2.50;0.57;;;;;;;17.43;46.99;98994.66;5077711;28;42453;-78
2022/07/28 00:21:03;;;;;;;2.60;0.60;;;;;;;17.40;47.27;98994.94;5077275;28;40997;-77
2022/07/28 00:23:32;;;;;;;0.60;0.60;;;;;;;17.36;47.18;98998.88;5074878;28;40836;-77
2022/07/28 00:26:00;;;;;;;1.07;0.50;;;;;;;17.32;47.12;99001.94;5091799;28;42783;-77
2022/07/28 00:28:27;;;;;;;1.37;0.70;;;;;;;17.30;46.91;99004.78;5058993;28;41034;-78
2022/07/28 00:30:55;;;;;;;1.87;0.70;;;;;;;17.27;47.13;98998.84;5058100;28;39173;-79
2022/07/28 00:33:23;;;;;;;1.37;0.73;;;;;;;17.16;46.93;98978.38;5070906;28;41389;-79
2022/07/28 00:35:50;;;;;;;0.97;0.70;;;;;;;17.26;46.62;98986.44;5070832;28;41314;-79
2022/07/28 00:38:18;;;;;;;2.17;0.70;;;;;;;17.21;47.19;98990.34;5070617;28;41563;-78
2022/07/28 00:43:32;;;;;;;1.70;0.50;;;;;;;17.17;47.05;98985.41;5069332;28;43119;-77
2022/07/28 00:46:00;;;;;;;0.97;0.60;;;;;;;17.16;47.20;98981.03;5070947;28;44184;-79
2022/07/28 00:48:28;;;;;;;1.30;0.80;;;;;;;17.15;47.08;98982.03;5087222;28;42248;-78
2022/07/28 00:50:55;;;;;;;2.17;0.60;;;;;;;17.12;47.08;98976.94;5053767;28;39634;-79
2022/07/28 00:53:24;;;;;;;1.53;0.53;;;;;;;17.10;46.85;98977.06;5087674;28;41568;-77
2022/07/28 00:55:53;;;;;;;0.97;0.57;;;;;;;17.07;46.91;98980.00;5070635;28;41712;-77
2022/07/28 00:58:21;;;;;;;0.60;0.60;;;;;;;17.07;47.04;98985.34;5071651;28;42374;-79
2022/07/28 01:00:49;;;;;;;0.50;0.47;;;;;;;17.04;46.50;98988.31;5087954;28;39842;-79
2022/07/28 01:03:16;;;;;;;0.50;0.50;;;;;;;17.02;46.94;98986.75;5087358;28;42706;-78
2022/07/28 01:05:52;;;;;;;1.70;0.70;;;;;;;16.99;46.67;98984.34;5087369;28;42705;-79
2022/07/28 01:08:27;;;;;;;0.63;0.60;;;;;;;16.84;46.59;98979.31;5053153;28;42142;-80
2022/07/28 01:11:04;;;;;;;1.50;0.70;;;;;;;16.91;47.18;98989.50;5070753;28;40034;-78
2022/07/28 01:13:38;;;;;;;0.80;0.70;;;;;;;16.90;47.53;98979.78;5086081;28;41795;-78
2022/07/28 01:16:07;;;;;;;1.83;0.77;;;;;;;16.83;47.24;98977.63;5070343;28;41633;-78
2022/07/28 01:18:42;;;;;;;0.93;0.50;;;;;;;16.83;47.09;98982.97;5070394;28;42242;-79
2022/07/28 01:21:13;;;;;;;0.60;0.60;;;;;;;16.81;47.31;98987.59;5084395;28;40775;-79
2022/07/28 01:24:14;;;;;;;1.37;0.80;;;;;;;16.81;47.70;98976.91;5069652;28;42760;-79
2022/07/28 01:26:53;;;;;;;1.17;0.80;;;;;;;16.84;47.60;98981.16;5053737;28;42797;-80
2022/07/28 01:29:44;;;;;;;1.13;0.70;;;;;;;16.85;47.33;98977.50;5053735;28;40754;-78
2022/07/28 01:32:19;;;;;;;0.83;0.70;;;;;;;16.86;47.28;98972.03;5084448;28;39934;-79
2022/07/28 01:34:52;;;;;;;1.67;0.70;;;;;;;16.78;47.63;98955.78;5070050;28;42098;-78
2022/07/28 01:37:24;;;;;;;0.90;0.67;;;;;;;16.87;47.22;98980.91;5067289;28;43794;-79
2022/07/28 01:39:56;;;;;;;1.93;0.60;;;;;;;16.81;47.26;98960.84;5083744;28;42177;-79
2022/07/28 01:42:28;;;;;;;0.93;0.60;;;;;;;16.85;47.58;98972.16;5053208;28;39983;-79
2022/07/28 01:44:59;;;;;;;0.40;0.40;;;;;;;16.83;47.21;98977.63;5070061;28;42833;-79
2022/07/28 01:47:29;;;;;;;1.27;0.67;;;;;;;16.76;47.60;98967.59;5069772;28;43970;-79
2022/07/28 01:50:00;;;;;;;1.80;0.73;;;;;;;16.74;47.60;98964.19;5053350;28;44358;-80
2022/07/28 01:52:30;;;;;;;1.07;0.67;;;;;;;16.73;47.48;98968.69;5070075;28;39013;-79
2022/07/28 01:55:00;;;;;;;0.80;0.60;;;;;;;16.72;47.77;98961.66;5071355;28;43994;-78
2022/07/28 01:57:31;;;;;;;3.80;0.67;;;;;;;16.68;47.78;98968.28;5073216;28;42866;-79
2022/07/28 02:00:00;;;;;;;1.63;0.70;;;;;;;16.67;47.80;98963.06;5073296;28;42264;-78
2022/07/28 02:02:33;;;;;;;0.60;0.60;;;;;;;16.57;47.84;98952.25;5090093;28;40900;-78
2022/07/28 02:05:02;;;;;;;2.40;0.90;;;;;;;16.64;47.78;98964.16;5073489;28;40657;-78
2022/07/28 02:07:32;;;;;;;3.03;0.90;;;;;;;16.59;47.92;98952.09;5072967;28;43839;-77
2022/07/28 02:10:01;;;;;;;0.70;0.70;;;;;;;16.54;47.59;98947.19;5089640;28;43215;-78
2022/07/28 02:12:30;;;;;;;1.40;0.63;;;;;;;16.66;47.56;98962.19;5072588;28;38839;-77
2022/07/28 02:14:59;;;;;;;1.97;0.50;;;;;;;16.66;47.40;98962.19;5073056;28;40512;-78
2022/07/28 02:17:32;;;;;;;0.87;0.73;;;;;;;16.66;47.75;98956.00;5072575;28;42055;-79
2022/07/28 02:20:03;;;;;;;1.30;0.77;;;;;;;16.63;47.67;98953.59;5073497;28;41939;-78
2022/07/28 02:22:34;;;;;;;1.57;0.83;;;;;;;16.26;47.70;98905.91;5070491;28;40687;-79
2022/07/28 02:25:02;;;;;;;0.90;0.87;;;;;;;16.58;47.96;98953.94;5074502;28;41410;-78
2022/07/28 02:27:36;;;;;;;1.13;0.63;;;;;;;16.59;48.04;98950.28;5072869;28;41226;-79
2022/07/28 02:30:10;;;;;;;1.23;0.73;;;;;;;16.57;48.18;98949.56;5072546;28;42325;-79
2022/07/28 02:32:45;;;;;;;2.03;1.40;;;;;;;16.53;48.16;98945.47;5071589;28;41652;-78
2022/07/28 02:35:23;;;;;;;1.37;0.70;;;;;;;16.44;47.96;98935.59;5086853;28;41774;-78
2022/07/28 02:37:57;;;;;;;0.60;0.60;;;;;;;16.47;48.34;98940.63;5072796;28;41698;-79
2022/07/28 02:40:31;;;;;;;0.50;0.50;;;;;;;16.40;48.11;98928.78;5089912;28;41332;-77
2022/07/28 02:42:59;;;;;;;1.13;0.80;;;;;;;16.38;48.29;98920.03;5055728;28;38918;-78
2022/07/28 02:45:29;;;;;;;0.70;0.70;;;;;;;16.46;48.08;98934.44;5055989;28;41853;-79
2022/07/28 02:48:01;;;;;;;1.37;0.57;;;;;;;16.46;48.22;98933.59;5072238;28;41817;-79
2022/07/28 02:50:30;;;;;;;0.80;0.60;;;;;;;16.45;48.36;98931.91;5072824;28;41100;-77
2022/07/28 02:53:01;;;;;;;0.90;0.67;;;;;;;16.46;48.27;98930.91;5072508;28;40130;-78
2022/07/28 02:55:31;;;;;;;1.20;0.80;;;;;;;16.44;48.22;98936.41;5069360;28;41498;-79
2022/07/28 02:58:00;;;;;;;2.03;0.80;;;;;;;16.45;48.46;98937.25;5072215;28;44423;-78
2022/07/28 03:00:29;;;;;;;0.70;0.67;;;;;;;16.44;48.13;98940.94;5089486;28;42572;-77
2022/07/28 03:02:59;;;;;;;0.70;0.70;;;;;;;16.41;48.39;98939.34;5089040;28;40277;-78
2022/07/28 03:05:28;;;;;;;1.00;0.60;;;;;;;16.43;48.57;98933.88;5055171;28;40803;-78
2022/07/28 03:07:58;;;;;;;1.40;0.77;;;;;;;16.44;48.42;98930.22;5054505;28;42060;-76
2022/07/28 03:10:27;;;;;;;0.70;0.60;;;;;;;16.37;48.34;98923.69;5071878;28;42341;-77
2022/07/28 03:12:57;;;;;;;1.30;0.70;;;;;;;16.44;48.36;98943.59;5088855;28;39585;-81
2022/07/28 03:15:24;;;;;;;2.03;0.80;;;;;;;16.42;48.42;98942.88;5072161;28;40666;-78
2022/07/28 03:17:52;;;;;;;1.47;0.70;;;;;;;16.39;48.73;98946.66;5071695;28;43139;-78
2022/07/28 03:20:22;;;;;;;1.63;0.73;;;;;;;16.28;48.71;98935.19;5071814;28;42346;-79
2022/07/28 03:22:49;;;;;;;2.13;0.60;;;;;;;16.18;48.76;98919.06;5072984;28;41690;-78
2022/07/28 03:25:23;;;;;;;0.60;0.60;;;;;;;16.35;48.55;98950.56;5072191;28;42385;-78
2022/07/28 03:27:52;;;;;;;1.63;0.90;;;;;;;16.30;49.09;98941.25;5071825;28;43210;-78
2022/07/28 03:30:25;;;;;;;0.77;0.73;;;;;;;16.32;49.03;98958.00;5073185;28;43254;-77
2022/07/28 03:32:57;;;;;;;1.97;0.90;;;;;;;16.30;48.96;98943.91;5072094;28;38911;-78
2022/07/28 03:35:27;;;;;;;0.97;0.60;;;;;;;16.28;48.94;98945.88;5071866;28;43065;-80
2022/07/28 03:37:59;;;;;;;0.67;0.67;;;;;;;16.24;49.12;98950.59;5088929;28;43304;-78
2022/07/28 03:40:29;;;;;;;1.70;0.70;;;;;;;16.24;48.96;98941.75;5071833;28;41120;-78
2022/07/28 03:42:58;;;;;;;1.90;1.07;;;;;;;16.18;49.09;98940.44;5071545;28;40154;-79
2022/07/28 03:45:26;;;;;;;1.70;0.80;;;;;;;16.19;49.52;98946.66;5071572;28;41440;-78
2022/07/28 03:47:56;;;;;;;1.90;0.90;;;;;;;16.17;49.50;98944.94;5089025;28;43838;-79
2022/07/28 03:50:26;;;;;;;1.07;0.70;;;;;;;16.08;49.66;98934.16;5073022;28;42286;-80
2022/07/28 03:52:55;;;;;;;1.70;0.80;;;;;;;16.19;49.83;98941.31;5072301;28;38576;-79
2022/07/28 03:55:24;;;;;;;1.33;0.83;;;;;;;16.19;49.91;98939.47;5071740;28;42270;-78
2022/07/28 03:57:52;;;;;;;1.30;0.80;;;;;;;16.21;49.94;98939.31;5088059;28;44143;-79
2022/07/28 04:00:21;;;;;;;2.10;0.80;;;;;;;16.20;49.46;98943.81;5071652;28;42588;-78
2022/07/28 04:02:49;;;;;;;1.27;0.90;;;;;;;16.22;49.92;98946.38;5071431;28;40118;-80
2022/07/28 04:05:18;;;;;;;1.70;0.77;;;;;;;16.24;49.63;98944.41;5071544;28;41710;-79
2022/07/28 04:07:48;;;;;;;0.87;0.80;;;;;;;16.26;49.85;98942.47;5072541;28;42607;-79
2022/07/28 04:10:17;;;;;;;1.97;0.80;;;;;;;16.28;49.69;98941.38;5054116;28;42134;-78
2022/07/28 04:12:52;;;;;;;1.47;0.70;;;;;;;16.31;49.95;98937.59;5070603;28;41188;-77
2022/07/28 04:15:19;;;;;;;1.87;0.73;;;;;;;16.32;49.75;98944.63;5068419;28;41883;-78
2022/07/28 04:17:49;;;;;;;1.30;0.83;;;;;;;16.37;49.44;98939.72;5070836;28;43029;-77
2022/07/28 04:20:17;;;;;;;1.47;0.80;;;;;;;16.41;49.42;98943.84;5071281;28;41316;-77
2022/07/28 04:22:48;;;;;;;1.03;0.70;;;;;;;16.44;49.78;98943.59;5072350;28;40051;-80
2022/07/28 04:25:17;;;;;;;1.37;0.70;;;;;;;16.47;49.40;98937.97;5088669;28;41657;-80
2022/07/28 04:27:46;;;;;;;1.87;0.80;;;;;;;16.50;49.21;98930.53;5070977;28;42892;-78
2022/07/28 04:30:16;;;;;;;2.93;0.77;;;;;;;16.53;49.67;98938.31;5071198;28;42621;-77
2022/07/28 04:32:44;;;;;;;0.80;0.80;;;;;;;16.60;49.51;98940.44;5071171;28;39175;-77
2022/07/28 04:35:13;;;;;;;4.50;0.90;;;;;;;16.66;49.43;98939.97;5070710;28;40801;-78
2022/07/28 04:37:41;;;;;;;2.17;0.70;;;;;;;16.61;48.96;98915.41;5053816;28;43024;-77
2022/07/28 04:40:12;;;;;;;0.70;0.60;;;;;;;16.72;49.00;98934.91;5071041;28;42168;-79
2022/07/28 04:42:40;;;;;;;0.90;0.70;;;;;;;16.75;48.85;98929.31;5071278;28;39764;-75
2022/07/28 04:45:10;;;;;;;0.90;0.70;;;;;;;16.81;48.89;98939.47;5072310;28;41898;-79
2022/07/28 04:47:39;;;;;;;0.93;0.90;;;;;;;16.84;49.16;98943.69;5070516;28;42832;-76
2022/07/28 04:50:10;;;;;;;0.87;0.77;;;;;;;16.87;49.03;98941.63;5070836;28;42315;-80
2022/07/28 04:52:38;;;;;;;4.07;1.00;;;;;;;16.95;48.90;98945.44;5070426;28;40187;-79
2022/07/28 04:55:07;;;;;;;0.80;0.70;;;;;;;17.02;48.59;98941.25;5070782;28;41692;-79
2022/07/28 04:57:37;;;;;;;4.40;1.10;;;;;;;17.09;48.89;98945.94;5070652;28;43288;-79
2022/07/28 05:00:11;;;;;;;1.00;0.90;;;;;;;17.17;48.65;98950.63;5087487;28;41966;-80
2022/07/28 05:02:39;;;;;;;2.30;0.90;;;;;;;17.23;48.45;98948.25;5085380;28;41119;-79
2022/07/28 05:05:07;;;;;;;2.77;1.03;;;;;;;17.17;49.16;98932.75;5070578;28;42487;-77
2022/07/28 05:07:35;;;;;;;0.67;0.67;;;;;;;17.32;48.57;98949.25;5104460;28;42721;-80
2022/07/28 05:10:03;;;;;;;1.63;0.90;;;;;;;17.40;48.71;98936.06;5070469;28;41177;-76
2022/07/28 05:12:31;;;;;;;2.03;1.10;;;;;;;17.43;48.79;98942.97;5087295;28;40958;-80
2022/07/28 05:15:00;;;;;;;1.13;0.80;;;;;;;17.47;48.84;98937.19;5071740;28;41817;-77
2022/07/28 05:17:28;;;;;;;1.40;1.03;;;;;;;17.52;48.76;98936.78;5070212;28;42011;-80
2022/07/28 05:19:56;;;;;;;1.43;0.80;;;;;;;17.59;48.40;98936.09;5087338;28;42152;-78
2022/07/28 05:22:24;;;;;;;3.20;0.80;;;;;;;17.71;48.71;98936.84;5070046;28;40044;-79
2022/07/28 05:24:52;;;;;;;1.40;0.70;;;;;;;17.78;48.56;98937.16;5087350;28;42662;-78
2022/07/28 05:27:20;;;;;;;1.40;0.93;;;;;;;17.83;48.58;98935.72;5071458;28;43577;-77
2022/07/28 05:29:48;;;;;;;1.00;0.80;;;;;;;17.94;48.41;98935.59;5055053;28;42260;-78
2022/07/28 05:32:17;;;;;;;2.10;0.90;;;;;;;17.97;48.14;98939.81;5073666;28;39007;-77
2022/07/28 05:34:45;;;;;;;1.97;1.20;;;;;;;18.06;47.81;98944.34;5074951;28;41495;-80
2022/07/28 05:37:12;;;;;;;2.10;0.93;;;;;;;18.24;47.72;98942.66;5073929;28;43669;-77
2022/07/28 05:39:40;;;;;;;2.00;0.80;;;;;;;18.38;47.63;98943.22;5073226;28;42278;-77
2022/07/28 05:42:08;;;;;;;1.87;0.93;;;;;;;18.53;47.34;98949.81;5056221;28;39276;-76
2022/07/28 05:44:36;;;;;;;2.20;1.13;;;;;;;18.67;47.06;98949.38;5073259;28;41750;-75
2022/07/28 05:47:04;;;;;;;2.40;1.10;;;;;;;18.70;46.63;98918.75;5073086;28;42116;-76
2022/07/28 05:49:34;;;;;;;1.73;0.97;;;;;;;19.04;46.30;98956.66;5073938;28;42331;-76
2022/07/28 05:52:02;;;;;;;1.50;1.07;;;;;;;19.21;45.95;98959.38;5072750;28;41839;-76
2022/07/28 05:54:29;;;;;;;2.23;0.90;;;;;;;19.37;45.61;98958.75;5073008;28;41188;-75
2022/07/28 05:56:57;;;;;;;1.47;1.17;;;;;;;19.50;45.64;98958.44;5072940;28;41727;-76
2022/07/28 05:59:25;;;;;;;1.20;1.00;;;;;;;19.62;45.30;98968.00;5072922;28;43062;-77
2022/07/28 06:01:52;;;;;;;1.77;0.73;;;;;;;19.69;45.61;98959.16;5073072;28;40027;-76
2022/07/28 06:04:20;;;;;;;2.30;0.90;;;;;;;19.87;45.25;98966.41;5056075;28;40845;-76
2022/07/28 06:06:49;;;;;;;0.93;0.90;;;;;;;19.97;44.77;98973.41;5072880;28;42834;-76
2022/07/28 06:09:17;;;;;;;0.90;0.70;;;;;;;19.81;44.89;98924.00;5072058;28;41970;-75
2022/07/28 06:11:45;;;;;;;1.60;1.00;;;;;;;20.35;44.10;98980.38;5072703;28;38786;-77
2022/07/28 06:14:12;;;;;;;2.13;1.00;;;;;;;20.20;43.72;98941.53;5089243;28;41619;-77
2022/07/28 06:16:41;;;;;;;1.77;0.90;;;;;;;20.57;43.65;98980.88;5072138;28;41805;-77
2022/07/28 06:19:08;;;;;;;2.00;0.80;;;;;;;20.68;43.73;98977.94;5054865;28;41173;-77
2022/07/28 06:21:36;;;;;;;2.43;0.93;;;;;;;20.80;43.52;98976.66;5072919;28;39667;-77
2022/07/28 06:24:07;;;;;;;1.77;0.90;;;;;;;20.90;42.77;98972.03;5055334;28;41473;-77
2022/07/28 06:26:36;;;;;;;2.23;0.97;;;;;;;21.16;42.43;98994.41;5055802;28;43049;-76
2022/07/28 06:29:04;;;;;;;1.53;1.10;;;;;;;21.32;42.41;98995.53;5072200;28;43738;-77
2022/07/28 06:31:32;;;;;;;2.70;1.30;;;;;;;21.54;42.73;98992.28;5072852;28;39960;-77
2022/07/28 06:34:00;;;;;;;1.97;1.10;;;;;;;21.48;42.31;98939.88;5073419;28;42771;-77
2022/07/28 06:36:28;;;;;;;1.70;0.90;;;;;;;21.86;41.70;98981.63;5072200;28;41598;-77
2022/07/28 06:38:56;;;;;;;2.93;1.73;;;;;;;22.01;41.35;98989.94;5073151;28;41992;-77
2022/07/28 06:41:25;;;;;;;4.37;1.37;;;;;;;22.05;41.19;98994.00;5072414;28;41309;-77
2022/07/28 06:43:53;;;;;;;3.07;1.20;;;;;;;22.13;41.25;98991.28;5071777;28;41689;-78
2022/07/28 06:46:21;;;;;;;1.03;0.90;;;;;;;22.39;40.77;98993.88;5072261;28;41731;-76
2022/07/28 06:48:49;;;;;;;1.37;1.00;;;;;;;22.63;40.06;99008.38;5071801;28;42898;-78
2022/07/28 06:51:18;;;;;;;0.93;0.90;;;;;;;22.98;40.07;99005.38;5072169;28;38781;-77
2022/07/28 06:53:47;;;;;;;1.60;1.00;;;;;;;23.48;39.54;99013.19;5073079;28;42036;-77
2022/07/28 06:56:15;;;;;;;0.93;0.90;;;;;;;23.80;38.68;99012.25;5072105;28;41559;-77
2022/07/28 06:58:44;;;;;;;2.53;1.13;;;;;;;23.82;38.50;99007.50;5088608;28;42363;-76
2022/07/28 07:01:13;;;;;;;0.87;0.70;;;;;;;24.02;38.48;98998.94;5088824;28;39703;-78
2022/07/28 07:03:41;;;;;;;3.53;0.77;;;;;;;24.17;37.74;99008.81;5071577;28;40773;-77
2022/07/28 07:06:09;;;;;;;2.10;0.80;;;;;;;24.45;37.40;99011.88;5054911;28;44018;-77
2022/07/28 07:08:37;;;;;;;1.93;1.00;;;;;;;24.72;37.00;99015.91;5071357;28;42308;-77
2022/07/28 07:11:04;;;;;;;3.77;0.90;;;;;;;24.79;36.85;99013.31;5085818;28;39620;-77
2022/07/28 07:13:32;;;;;;;1.97;1.03;;;;;;;25.04;36.57;99022.94;5088369;28;42616;-77
2022/07/28 07:16:02;;;;;;;1.87;1.07;;;;;;;25.10;36.49;99024.88;5073111;28;43796;-77
2022/07/28 07:18:30;;;;;;;1.00;0.90;;;;;;;25.16;36.38;99026.03;5071367;28;41510;-77
2022/07/28 07:20:57;;;;;;;1.10;0.87;;;;;;;25.09;36.45;99001.56;5071553;28;38590;-77
2022/07/28 07:23:25;;;;;;;2.13;1.03;;;;;;;25.64;36.31;99014.69;5054633;28;40535;-77
2022/07/28 07:25:55;;;;;;;1.10;1.00;;;;;;;25.68;35.82;99020.56;5088382;28;43647;-76
2022/07/28 07:28:23;;;;;;;1.30;1.10;;;;;;;25.54;36.06;99018.69;5053979;28;41237;-77
2022/07/28 07:30:50;;;;;;;3.43;1.00;;;;;;;25.38;35.56;99020.53;5088728;28;40789;-78
2022/07/28 07:33:20;;;;;;;1.13;0.70;;;;;;;25.24;36.45;99012.38;5054284;28;40822;-76
2022/07/28 07:35:47;;;;;;;2.60;0.90;;;;;;;25.29;36.47;99005.41;5071281;28;42372;-77
2022/07/28 07:38:15;;;;;;;2.13;1.00;;;;;;;25.69;35.73;99004.13;5071132;28;42333;-77
2022/07/28 07:40:43;;;;;;;1.57;1.03;;;;;;;26.28;35.11;99005.88;5054618;28;40258;-78
2022/07/28 07:43:11;;;;;;;1.47;1.20;;;;;;;26.84;33.89;99013.09;5088016;28;41492;-78
2022/07/28 07:45:40;;;;;;;3.63;1.20;;;;;;;27.26;33.87;99011.38;5088329;28;43761;-78
2022/07/28 07:48:08;;;;;;;2.67;1.20;;;;;;;27.49;33.56;98995.63;5087688;28;42991;-78
2022/07/28 07:50:38;;;;;;;0.77;0.77;;;;;;;27.76;33.06;99012.13;5072767;28;39980;-78
2022/07/28 07:53:06;;;;;;;1.10;1.00;;;;;;;27.99;31.92;99018.09;5070117;28;41757;-76
2022/07/28 07:55:34;;;;;;;2.37;1.00;;;;;;;28.28;31.66;99010.69;5054346;28;44237;-77
2022/07/28 07:58:01;;;;;;;2.17;1.00;;;;;;;28.79;31.09;99014.56;5070693;28;42600;-78
2022/07/28 08:00:30;;;;;;;1.93;1.10;;;;;;;29.52;30.19;99020.84;5071319;28;39745;-78
2022/07/28 08:02:59;;;;;;;1.50;1.00;;;;;;;29.48;29.78;99025.03;5070662;28;41700;-77
2022/07/28 08:05:27;;;;;;;2.93;1.30;;;;;;;29.20;30.41;99016.22;5070772;28;41746;-77
2022/07/28 08:07:56;;;;;;;1.50;0.90;;;;;;;28.92;30.65;99019.19;5072025;28;42234;-77
2022/07/28 08:10:24;;;;;;;2.57;1.03;;;;;;;28.63;30.50;99012.22;5070720;28;38845;-76
2022/07/28 08:12:52;;;;;;;1.33;1.10;;;;;;;28.86;31.03;99009.94;5070698;28;41753;-78
2022/07/28 08:15:20;;;;;;;1.00;0.90;;;;;;;29.17;30.30;99022.13;5070799;28;42857;-77
2022/07/28 08:17:47;;;;;;;2.27;1.20;;;;;;;29.75;30.02;99023.06;5070083;28;41145;-78
2022/07/28 08:20:15;;;;;;;1.87;1.10;;;;;;;30.26;29.32;99017.63;5070962;28;40964;-77
2022/07/28 08:22:50;;;;;;;1.20;1.10;;;;;;;30.57;28.50;99035.13;5071868;28;41921;-78
2022/07/28 08:25:19;;;;;;;1.63;1.20;;;;;;;30.91;28.12;99031.13;5084592;28;42824;-77
2022/07/28 08:27:47;;;;;;;2.33;1.10;;;;;;;31.44;28.24;99031.50;5071668;28;42085;-78
2022/07/28 08:30:17;;;;;;;1.30;1.20;;;;;;;31.85;26.79;99043.75;5072065;28;39911;-76
2022/07/28 08:32:45;;;;;;;1.67;1.10;;;;;;;31.94;26.59;99036.88;5070442;28;43122;-78
2022/07/28 08:35:13;;;;;;;1.60;1.23;;;;;;;32.25;26.42;99039.50;5070392;28;42710;-76
2022/07/28 08:37:41;;;;;;;1.70;1.30;;;;;;;32.71;25.80;99038.84;5087091;28;43220;-77
2022/07/28 08:40:13;;;;;;;2.53;1.03;;;;;;;33.16;25.66;99027.34;5053693;28;38830;-78
2022/07/28 08:42:50;;;;;;;1.20;1.07;;;;;;;34.00;25.05;99047.19;5069897;28;41011;-78
2022/07/28 08:45:20;;;;;;;2.13;1.27;;;;;;;34.66;23.85;99048.53;5070081;28;44600;-76
2022/07/28 08:47:50;;;;;;;1.40;1.30;;;;;;;35.46;22.83;99018.81;5071205;28;43485;-78
2022/07/28 08:50:23;;;;;;;1.50;1.30;;;;;;;36.84;21.84;99043.47;5086878;28;39109;-78
2022/07/28 08:52:52;;;;;;;1.07;0.90;;;;;;;37.54;21.15;99056.22;5069887;28;40647;-78
2022/07/28 08:55:24;;;;;;;1.92;1.50;;;;;;;38.47;20.21;99069.16;5071326;28;43759;-78
2022/07/28 08:57:55;;;;;;;1.00;1.00;;;;;;;39.39;19.24;99069.31;5069767;28;41415;-78
2022/07/28 09:00:24;;;;;;;2.47;0.93;;;;;;;39.46;19.52;99061.56;5053611;28;39848;-77
2022/07/28 09:02:52;;;;;;;1.58;1.30;;;;;;;39.06;20.06;99059.66;5069899;28;41673;-77
2022/07/28 09:05:21;;;;;;;1.02;1.00;;;;;;;38.63;19.25;99070.06;5072089;28;43107;-75
2022/07/28 09:07:52;;;;;;;2.72;1.50;;;;;;;37.93;20.37;99048.44;5090212;28;43949;-76
2022/07/28 09:10:20;;;;;;;1.27;1.08;;;;;;;37.43;21.08;99057.25;5073480;28;39788;-75
2022/07/28 09:12:48;;;;;;;1.40;1.20;;;;;;;36.79;21.09;99048.94;5073447;28;41824;-77
2022/07/28 09:15:17;;;;;;;2.00;1.30;;;;;;;36.21;21.52;99047.69;5075011;28;43655;-76
2022/07/28 09:17:45;;;;;;;2.03;1.40;;;;;;;35.88;22.09;99038.44;5073206;28;41532;-76
2022/07/28 09:20:13;;;;;;;2.60;1.08;;;;;;;35.99;22.28;99033.88;5090505;28;39697;-76
2022/07/28 09:22:58;;;;;;;1.60;1.17;;;;;;;35.99;21.81;99034.72;5073304;28;40525;-76
2022/07/28 09:25:27;;;;;;;1.60;1.30;;;;;;;35.96;21.42;99040.78;5073608;28;41741;-76
2022/07/28 09:27:55;;;;;;;1.57;1.20;;;;;;;35.79;21.89;99026.19;5073218;28;42060;-77
2022/07/28 09:30:32;;;;;;;3.30;1.37;;;;;;;35.59;21.71;99036.91;5090461;28;38623;-77
2022/07/28 09:33:15;;;;;;;1.30;1.10;;;;;;;35.06;20.90;99019.00;5073294;28;40651;-76
2022/07/28 09:35:44;;;;;;;1.87;1.30;;;;;;;34.65;21.62;99030.34;5073446;28;43019;-75
2022/07/28 09:38:13;;;;;;;1.43;1.20;;;;;;;34.42;22.11;99034.88;5072804;28;42102;-76
2022/07/28 09:40:41;;;;;;;1.87;1.10;;;;;;;34.25;22.51;99022.94;5074401;28;39933;-76
2022/07/28 09:43:10;;;;;;;1.93;1.10;;;;;;;34.42;22.68;99026.63;5072936;28;42218;-76
2022/07/28 09:45:40;;;;;;;1.40;1.30;;;;;;;34.65;21.90;99005.56;5073150;28;42028;-76
2022/07/28 09:48:10;;;;;;;1.30;1.20;;;;;;;34.88;21.55;99017.31;5089728;28;43582;-76
2022/07/28 09:50:38;;;;;;;1.83;1.27;;;;;;;35.18;21.28;99022.50;5073092;28;41131;-76
2022/07/28 09:53:23;;;;;;;1.30;1.17;;;;;;;35.57;20.60;99031.66;5072820;28;42361;-75
2022/07/28 09:55:56;;;;;;;1.53;1.10;;;;;;;35.99;20.59;99023.69;5073143;28;41997;-76
2022/07/28 09:58:25;;;;;;;1.70;1.20;;;;;;;36.62;19.85;99029.69;5073706;28;42313;-76
2022/07/28 10:01:04;;;;;;;1.15;1.08;;;;;;;37.03;19.46;99028.16;5072881;28;40907;-76
2022/07/28 10:03:32;;;;;;;1.20;1.10;;;;;;;37.23;19.08;99025.59;5072984;28;42444;-77
2022/07/28 10:06:03;;;;;;;2.30;1.52;;;;;;;37.24;19.40;99024.50;5072580;28;42864;-77
2022/07/28 10:08:43;;;;;;;3.27;1.30;;;;;;;36.94;19.13;99035.28;5055126;28;41367;-76
2022/07/28 10:11:12;;;;;;;1.73;1.50;;;;;;;36.67;19.46;99030.56;5069994;28;41002;-76
2022/07/28 10:13:54;;;;;;;1.70;1.20;;;;;;;36.50;19.70;99015.19;5072553;28;41825;-78
2022/07/28 10:16:25;;;;;;;1.40;1.20;;;;;;;36.90;19.41;99020.31;5085978;28;42925;-76
2022/07/28 10:18:54;;;;;;;3.60;1.35;;;;;;;37.56;19.50;99015.31;5072116;28;41356;-77
2022/07/28 10:21:24;;;;;;;1.88;1.65;;;;;;;38.10;18.83;99015.91;5073754;28;40710;-77
2022/07/28 10:23:54;;;;;;;1.30;1.20;;;;;;;38.83;18.33;99015.81;5055057;28;42098;-77
2022/07/28 10:26:31;;;;;;;3.17;1.20;;;;;;;39.36;17.65;99004.19;5055477;28;43340;-78
2022/07/28 10:29:02;;;;;;;1.55;1.30;;;;;;;39.27;17.45;99007.81;5089224;28;41296;-78
2022/07/28 10:31:49;;;;;;;2.20;1.50;;;;;;;39.34;17.92;98998.09;5072466;28;39244;-77
2022/07/28 10:34:21;;;;;;;1.13;1.02;;;;;;;39.39;17.68;99000.88;5088955;28;41660;-76
2022/07/28 10:36:51;;;;;;;2.45;1.38;;;;;;;39.17;17.73;98989.25;5072276;28;44603;-77
2022/07/28 10:39:20;;;;;;;1.33;1.10;;;;;;;38.92;17.82;98979.00;5071628;28;41156;-77
2022/07/28 10:41:48;;;;;;;1.30;1.20;;;;;;;38.89;17.73;98984.25;5073500;28;40709;-77
2022/07/28 10:44:19;;;;;;;2.80;1.25;;;;;;;39.26;17.53;98984.81;5089035;28;41650;-78
2022/07/28 10:46:50;;;;;;;1.83;1.25;;;;;;;40.14;17.11;98974.03;5072200;28;41681;-78
2022/07/28 10:49:19;;;;;;;2.03;1.20;;;;;;;40.44;16.89;98966.63;5072722;28;42694;-76
2022/07/28 10:51:49;;;;;;;2.17;1.10;;;;;;;39.99;16.84;98976.03;5089083;28;40923;-78
2022/07/28 10:54:23;;;;;;;3.53;1.30;;;;;;;39.52;17.23;98982.84;5073238;28;41955;-78
2022/07/28 10:56:53;;;;;;;1.80;1.10;;;;;;;39.36;17.29;98972.88;5072183;28;43154;-77
2022/07/28 11:00:08;;;;;;;2.42;1.55;;;;;;;39.91;16.97;98979.41;5054975;28;42847;-78
2022/07/28 11:02:50;;;;;;;1.15;1.05;;;;;;;40.46;16.88;98978.28;5036903;28;40992;-77
2022/07/28 11:05:30;;;;;;;1.30;1.20;;;;;;;40.61;16.01;98972.63;5070068;28;41692;-79
2022/07/28 11:08:00;;;;;;;1.30;1.00;;;;;;;40.55;16.60;98968.25;5072364;28;42828;-78
2022/07/28 11:10:29;;;;;;;2.40;1.17;;;;;;;40.41;16.53;98964.47;5087983;28;41916;-77
2022/07/28 11:12:59;;;;;;;2.17;1.30;;;;;;;40.21;16.64;98963.44;5097734;28;39200;-77
2022/07/28 11:15:30;;;;;;;1.60;1.13;;;;;;;40.04;16.87;98962.16;5105823;28;41164;-76
2022/07/28 11:18:01;;;;;;;1.50;1.20;;;;;;;40.11;16.70;98962.66;5054749;28;41700;-76
2022/07/28 11:21:08;;;;;;;2.25;1.17;;;;;;;40.03;17.21;98957.72;5068702;28;43305;-77
2022/07/28 11:23:53;;;;;;;2.65;1.48;;;;;;;40.18;16.58;98957.66;5071554;28;40073;-76
2022/07/28 11:26:35;;;;;;;1.25;0.98;;;;;;;40.27;16.42;98955.09;5069866;28;41703;-77
2022/07/28 11:29:24;;;;;;;1.52;1.10;;;;;;;40.37;16.64;98944.78;5070576;28;43766;-77
2022/07/28 11:32:05;;;;;;;2.25;1.20;;;;;;;40.44;16.83;98938.88;5066646;28;42369;-78
2022/07/28 11:35:07;;;;;;;2.13;1.33;;;;;;;40.66;16.37;98935.69;5069507;28;40929;-79
2022/07/28 11:38:09;;;;;;;1.40;1.30;;;;;;;40.69;16.42;98940.63;5088755;28;40750;-76
2022/07/28 11:40:39;;;;;;;1.65;1.25;;;;;;;40.47;16.24;98946.63;5075727;28;43716;-77
2022/07/28 11:43:33;;;;;;;1.50;1.40;;;;;;;40.13;16.60;98944.63;5071555;28;42299;-76
2022/07/28 11:46:24;;;;;;;2.42;1.27;;;;;;;39.64;16.68;98935.41;5071515;28;39601;-77
2022/07/28 11:49:31;;;;;;;1.23;1.10;;;;;;;39.42;17.08;98933.00;5071113;28;41754;-77
2022/07/28 11:52:22;;;;;;;1.45;1.10;;;;;;;39.17;17.66;98927.47;5067291;28;41650;-78
2022/07/28 11:54:57;;;;;;;1.37;1.27;;;;;;;38.73;17.31;98928.88;5053829;28;42423;-76